createdAt,value
2022-12-01T00:02:20.596Z,72.35
2022-12-01T00:04:48.981Z,72.70
2022-12-01T00:07:15.677Z,76.00
2022-12-01T00:10:01.020Z,67.43
2022-12-01T00:12:29.547Z,72.85
2022-12-01T00:15:00.871Z,72.32
2022-12-01T00:17:30.127Z,77.65
2022-12-01T00:19:57.403Z,64.90
2022-12-01T00:22:24.006Z,78.78
2022-12-01T00:24:51.502Z,70.65
2022-12-01T00:27:18.196Z,74.68
2022-12-01T00:29:46.209Z,71.40
2022-12-01T00:32:14.055Z,60.47
2022-12-01T00:34:40.767Z,66.10
2022-12-01T00:37:07.519Z,54.33
2022-12-01T00:39:34.191Z,56.20
2022-12-01T00:42:00.912Z,61.38
2022-12-01T00:44:27.666Z,60.47
2022-12-01T00:46:54.314Z,63.28
2022-12-01T00:49:21.041Z,50.75
2022-12-01T00:51:47.759Z,61.15
2022-12-01T00:54:14.480Z,54.90
2022-12-01T00:56:41.496Z,56.28
2022-12-01T00:59:08.151Z,58.88
2022-12-01T01:01:35.138Z,65.95
2022-12-01T01:04:01.860Z,64.32
2022-12-01T01:06:28.463Z,61.55
2022-12-01T01:08:55.283Z,60.95
2022-12-01T01:11:21.961Z,56.72
2022-12-01T01:13:48.544Z,47.80
2022-12-01T01:16:18.925Z,53.92
2022-12-01T01:18:46.191Z,54.63
2022-12-01T01:21:15.637Z,55.47
2022-12-01T01:23:42.360Z,52.70
2022-12-01T01:26:14.373Z,48.53
2022-12-01T01:28:44.023Z,51.67
2022-12-01T01:31:13.385Z,62.03
2022-12-01T01:33:40.341Z,48.67
2022-12-01T01:36:07.233Z,57.20
2022-12-01T01:38:34.581Z,38.33
2022-12-01T01:41:01.807Z,53.67
2022-12-01T01:43:49.510Z,54.65
2022-12-01T01:46:21.720Z,50.88
2022-12-01T01:48:52.397Z,54.70
2022-12-01T01:51:23.203Z,53.33
2022-12-01T01:53:52.718Z,50.60
2022-12-01T01:56:19.511Z,48.75
2022-12-01T01:58:46.191Z,52.92
2022-12-01T02:01:12.812Z,52.70
2022-12-01T02:03:39.898Z,56.42
2022-12-01T02:06:08.350Z,53.58
2022-12-01T02:08:36.048Z,57.95
2022-12-01T02:11:13.120Z,67.97
2022-12-01T02:13:51.295Z,66.97
2022-12-01T02:16:25.220Z,63.60
2022-12-01T02:19:26.570Z,70.15
2022-12-01T02:22:09.034Z,67.60
2022-12-01T02:24:41.897Z,58.67
2022-12-01T02:27:34.793Z,59.15
2022-12-01T02:30:14.361Z,66.43
2022-12-01T02:32:49.938Z,59.08
2022-12-01T02:35:29.327Z,59.03
2022-12-01T02:38:23.878Z,67.50
2022-12-01T02:41:01.736Z,73.22
2022-12-01T02:43:46.555Z,67.80
2022-12-01T02:46:27.681Z,69.13
2022-12-01T02:48:55.899Z,58.58
2022-12-01T02:51:35.429Z,62.78
2022-12-01T02:54:03.545Z,57.05
2022-12-01T02:56:30.290Z,66.10
2022-12-01T02:58:56.983Z,66.38
2022-12-01T03:01:27.522Z,70.63
2022-12-01T03:04:03.286Z,59.65
2022-12-01T03:06:54.379Z,62.25
2022-12-01T03:09:56.766Z,51.53
2022-12-01T03:12:29.278Z,61.20
2022-12-01T03:15:03.261Z,59.22
2022-12-01T03:17:36.663Z,61.63
2022-12-01T03:20:24.470Z,61.38
2022-12-01T03:22:55.732Z,56.58
2022-12-01T03:25:23.069Z,52.58
2022-12-01T03:28:20.308Z,48.88
2022-12-01T03:30:43.775Z,55.22
2022-12-01T03:33:14.756Z,52.40
2022-12-01T03:35:43.123Z,53.83
2022-12-01T03:38:16.351Z,66.88
2022-12-01T03:40:45.014Z,63.80
2022-12-01T03:43:15.397Z,49.63
2022-12-01T03:45:52.860Z,61.30
2022-12-01T03:48:19.583Z,65.07
2022-12-01T03:51:17.024Z,57.53
2022-12-01T03:54:14.359Z,59.78
2022-12-01T03:56:47.271Z,56.20
2022-12-01T03:59:14.855Z,56.28
2022-12-01T04:01:41.631Z,54.10
2022-12-01T04:04:11.635Z,59.55
2022-12-01T04:06:40.592Z,61.10
2022-12-01T04:09:07.192Z,59.10
2022-12-01T04:11:52.399Z,47.42
2022-12-01T04:14:19.010Z,51.05
2022-12-01T04:16:45.673Z,63.20
2022-12-01T04:19:12.248Z,49.35
2022-12-01T04:21:38.913Z,54.58
2022-12-01T04:24:05.709Z,48.65
2022-12-01T04:26:34.765Z,51.33
2022-12-01T04:29:02.564Z,50.83
2022-12-01T04:31:29.507Z,49.40
2022-12-01T04:33:57.425Z,41.78
2022-12-01T04:36:25.309Z,66.75
2022-12-01T04:38:52.197Z,55.25
2022-12-01T04:41:18.933Z,55.25
2022-12-01T04:43:45.576Z,49.40
2022-12-01T04:46:12.307Z,42.80
2022-12-01T04:48:39.286Z,41.88
2022-12-01T04:51:07.538Z,45.42
2022-12-01T04:53:35.147Z,44.38
2022-12-01T04:56:02.522Z,45.20
2022-12-01T04:58:30.192Z,41.53
2022-12-01T05:01:03.174Z,52.70
2022-12-01T05:03:29.962Z,45.45
2022-12-01T05:06:08.345Z,47.63
2022-12-01T05:08:35.082Z,42.88
2022-12-01T05:11:02.175Z,51.13
2022-12-01T05:13:29.053Z,42.47
2022-12-01T05:16:05.607Z,53.20
2022-12-01T05:18:32.450Z,53.25
2022-12-01T05:20:59.188Z,55.88
2022-12-01T05:23:30.747Z,43.17
2022-12-01T05:25:57.640Z,44.08
2022-12-01T05:28:26.377Z,61.67
2022-12-01T05:30:54.251Z,50.55
2022-12-01T05:33:22.314Z,61.58
2022-12-01T05:35:49.957Z,62.58
2022-12-01T05:38:16.726Z,67.38
2022-12-01T05:40:43.477Z,59.05
2022-12-01T05:43:10.144Z,61.30
2022-12-01T05:45:36.837Z,54.03
2022-12-01T05:48:03.701Z,48.30
2022-12-01T05:50:31.031Z,49.70
2022-12-01T05:52:57.777Z,60.72
2022-12-01T05:55:24.517Z,62.03
2022-12-01T05:57:51.221Z,56.47
2022-12-01T06:00:18.348Z,54.50
2022-12-01T06:02:45.644Z,57.28
2022-12-01T06:05:12.294Z,49.35
2022-12-01T06:07:40.499Z,59.47
2022-12-01T06:10:09.163Z,48.92
2022-12-01T06:12:36.561Z,50.88
2022-12-01T06:15:03.490Z,62.97
2022-12-01T06:17:30.302Z,54.35
2022-12-01T06:19:57.060Z,58.28
2022-12-01T06:22:23.806Z,52.63
2022-12-01T06:24:50.635Z,59.38
2022-12-01T06:27:17.383Z,52.65
2022-12-01T06:29:44.025Z,55.65
2022-12-01T06:32:10.827Z,57.35
2022-12-01T06:34:38.548Z,60.50
2022-12-01T06:37:05.200Z,55.25
2022-12-01T06:39:34.406Z,49.60
2022-12-01T06:42:01.149Z,39.15
2022-12-01T06:44:27.747Z,13.65
2022-12-01T06:46:54.494Z,56.58
2022-12-01T06:49:22.339Z,49.72
2022-12-01T06:51:49.902Z,47.92
2022-12-01T06:54:17.857Z,49.03
2022-12-01T06:56:45.887Z,49.10
2022-12-01T06:59:13.146Z,45.90
2022-12-01T07:01:40.279Z,50.53
2022-12-01T07:04:06.974Z,43.13
2022-12-01T07:06:33.690Z,25.73
2022-12-01T07:09:00.301Z,44.03
2022-12-01T07:11:27.004Z,51.58
2022-12-01T07:13:56.814Z,45.38
2022-12-01T07:16:23.541Z,49.78
2022-12-01T07:18:50.719Z,47.65
2022-12-01T07:21:17.458Z,52.60
2022-12-01T07:23:44.258Z,44.95
2022-12-01T07:26:13.251Z,51.97
2022-12-01T07:28:39.941Z,47.72
2022-12-01T07:31:12.089Z,36.40
2022-12-01T07:33:39.393Z,44.85
2022-12-01T07:36:07.067Z,43.47
2022-12-01T07:38:34.774Z,46.22
2022-12-01T07:41:10.528Z,55.25
2022-12-01T07:43:37.489Z,48.53
2022-12-01T07:46:08.946Z,57.35
2022-12-01T07:48:37.297Z,48.20
2022-12-01T07:51:06.114Z,27.73
2022-12-01T07:53:33.000Z,34.65
2022-12-01T07:56:04.211Z,35.53
2022-12-01T07:58:33.868Z,44.10
2022-12-01T08:01:08.385Z,42.13
2022-12-01T08:03:35.683Z,41.75
2022-12-01T08:06:03.664Z,42.10
2022-12-01T08:08:32.207Z,57.15
2022-12-01T08:11:04.046Z,42.63
2022-12-01T08:13:31.127Z,50.20
2022-12-01T08:15:57.916Z,45.33
2022-12-01T08:18:24.808Z,44.35
2022-12-01T08:20:51.922Z,49.28
2022-12-01T08:23:18.595Z,41.67
2022-12-01T08:25:45.235Z,43.30
2022-12-01T08:28:11.940Z,41.28
2022-12-01T08:30:38.658Z,39.28
2022-12-01T08:33:05.325Z,37.60
2022-12-01T08:35:33.795Z,41.75
2022-12-01T08:38:00.504Z,43.63
2022-12-01T08:40:27.209Z,35.70
2022-12-01T08:42:54.069Z,38.33
2022-12-01T08:45:20.797Z,38.38
2022-12-01T08:47:47.601Z,39.25
2022-12-01T08:50:14.386Z,31.75
2022-12-01T08:52:41.164Z,38.92
2022-12-01T08:55:08.756Z,42.10
2022-12-01T08:57:35.399Z,43.22
2022-12-01T09:00:02.666Z,36.47
2022-12-01T09:02:29.638Z,37.42
2022-12-01T09:04:56.369Z,44.33
2022-12-01T09:07:26.576Z,33.42
2022-12-01T09:09:53.915Z,40.78
2022-12-01T09:12:20.588Z,40.95
2022-12-01T09:14:50.467Z,42.83
2022-12-01T09:17:17.795Z,49.85
2022-12-01T09:19:44.558Z,46.13
2022-12-01T09:22:12.111Z,42.83
2022-12-01T09:24:38.868Z,53.33
2022-12-01T09:27:07.531Z,57.45
2022-12-01T09:29:34.220Z,53.60
2022-12-01T09:32:01.040Z,48.75
2022-12-01T09:34:28.983Z,53.72
2022-12-01T09:36:57.664Z,57.72
2022-12-01T09:39:24.659Z,65.88
2022-12-01T09:41:56.955Z,60.70
2022-12-01T09:44:30.271Z,58.22
2022-12-01T09:47:20.227Z,62.28
2022-12-01T09:49:56.303Z,67.85
2022-12-01T09:52:24.723Z,59.55
2022-12-01T09:54:54.419Z,64.18
2022-12-01T09:57:24.071Z,61.60
2022-12-01T09:59:51.487Z,58.05
2022-12-01T10:02:33.254Z,63.00
2022-12-01T10:05:03.529Z,67.03
2022-12-01T10:08:03.221Z,66.78
2022-12-01T10:10:48.325Z,69.70
2022-12-01T10:13:20.892Z,65.95
2022-12-01T10:16:10.988Z,73.60
2022-12-01T10:18:52.381Z,81.63
2022-12-01T10:21:43.957Z,46.20
2022-12-01T10:24:43.685Z,88.30
2022-12-01T10:27:36.477Z,83.43
2022-12-01T10:30:15.679Z,82.18
2022-12-01T10:32:52.918Z,65.07
2022-12-01T10:35:23.795Z,74.22
2022-12-01T10:37:59.831Z,83.65
2022-12-01T10:40:27.752Z,83.25
2022-12-01T10:42:55.071Z,81.57
2022-12-01T10:45:24.999Z,76.65
2022-12-01T10:48:11.371Z,75.05
2022-12-01T10:50:38.179Z,73.35
2022-12-01T10:53:05.168Z,70.70
2022-12-01T10:55:35.946Z,77.75
2022-12-01T10:58:14.194Z,62.83
2022-12-01T11:00:58.974Z,71.53
2022-12-01T11:03:29.193Z,76.55
2022-12-01T11:05:58.329Z,75.45
2022-12-01T11:08:36.195Z,76.53
2022-12-01T11:11:03.318Z,70.28
2022-12-01T11:13:33.191Z,85.53
2022-12-01T11:16:05.551Z,68.47
2022-12-01T11:18:35.287Z,78.68
2022-12-01T11:21:16.726Z,78.20
2022-12-01T11:23:51.455Z,67.82
2022-12-01T11:26:27.456Z,77.80
2022-12-01T11:29:01.028Z,72.53
2022-12-01T11:31:42.610Z,69.45
2022-12-01T11:34:27.450Z,67.88
2022-12-01T11:36:59.762Z,67.03
2022-12-01T11:39:35.174Z,73.72
2022-12-01T11:42:04.419Z,86.00
2022-12-01T11:47:23.612Z,77.97
2022-12-01T11:50:23.023Z,67.45
2022-12-01T11:52:49.717Z,81.35
2022-12-01T11:55:17.070Z,78.22
2022-12-01T11:57:44.836Z,77.35
2022-12-01T12:00:16.230Z,71.90
2022-12-01T12:03:02.370Z,71.32
2022-12-01T12:05:49.243Z,72.25
2022-12-01T12:08:20.251Z,78.07
2022-12-01T12:11:10.950Z,83.88
2022-12-01T12:13:43.686Z,71.05
2022-12-01T12:16:19.054Z,70.75
2022-12-01T12:19:07.799Z,83.72
2022-12-01T12:21:36.434Z,70.03
2022-12-01T12:24:23.551Z,63.25
2022-12-01T12:27:20.455Z,46.65
2022-12-01T12:30:16.006Z,80.40
2022-12-01T12:33:01.281Z,65.78
2022-12-01T12:35:34.789Z,70.30
2022-12-01T12:38:23.041Z,74.82
2022-12-01T12:41:18.933Z,55.03
2022-12-01T12:44:07.558Z,68.05
2022-12-01T12:47:00.665Z,63.67
2022-12-01T12:49:38.781Z,68.93
2022-12-01T12:52:12.824Z,62.97
2022-12-01T12:55:04.524Z,65.88
2022-12-01T12:57:46.840Z,65.53
2022-12-01T13:00:19.529Z,74.85
2022-12-01T13:03:09.745Z,70.03
2022-12-01T13:05:49.696Z,74.97
2022-12-01T13:08:22.998Z,72.82
2022-12-01T13:10:58.228Z,63.45
2022-12-01T13:13:33.635Z,66.30
2022-12-01T13:16:02.721Z,54.60
2022-12-01T13:18:39.612Z,57.08
2022-12-01T13:21:06.448Z,66.10
2022-12-01T13:23:34.232Z,52.88
2022-12-01T13:26:02.108Z,63.95
2022-12-01T13:28:47.901Z,72.47
2022-12-01T13:31:16.350Z,63.42
2022-12-01T13:34:03.308Z,70.15
2022-12-01T13:36:46.312Z,67.97
2022-12-01T13:39:22.584Z,62.95
2022-12-01T13:42:05.522Z,69.07
2022-12-01T13:44:41.120Z,61.33
2022-12-01T13:47:10.741Z,78.47
2022-12-01T13:49:46.170Z,73.50
2022-12-01T13:52:23.300Z,67.38
2022-12-01T13:55:09.677Z,61.33
2022-12-01T13:57:44.216Z,61.85
2022-12-01T14:00:27.018Z,67.53
2022-12-01T14:03:15.430Z,59.75
2022-12-01T14:05:42.019Z,67.13
2022-12-01T14:08:23.552Z,61.95
2022-12-01T14:11:00.301Z,63.70
2022-12-01T14:13:28.173Z,60.08
2022-12-01T14:15:55.084Z,72.28
2022-12-01T14:18:43.147Z,66.00
2022-12-01T14:21:12.152Z,55.75
2022-12-01T14:23:41.293Z,60.03
2022-12-01T14:26:16.084Z,41.47
2022-12-01T14:28:54.949Z,67.72
2022-12-01T14:31:22.861Z,78.25
2022-12-01T14:33:58.708Z,71.22
2022-12-01T14:36:49.944Z,71.80
2022-12-01T14:39:19.635Z,66.63
2022-12-01T14:41:57.590Z,73.55
2022-12-01T14:44:29.540Z,78.40
2022-12-01T14:47:13.257Z,74.47
2022-12-01T14:50:03.006Z,73.65
2022-12-01T14:52:40.200Z,74.70
2022-12-01T14:55:15.330Z,71.40
2022-12-01T14:57:46.572Z,71.65
2022-12-01T15:00:15.236Z,74.25
2022-12-01T15:03:10.101Z,81.00
2022-12-01T15:05:43.823Z,82.47
2022-12-01T15:11:21.697Z,75.63
2022-12-01T15:13:51.415Z,64.95
2022-12-01T15:16:20.254Z,78.20
2022-12-01T15:18:49.334Z,71.82
2022-12-01T15:21:18.154Z,73.32
2022-12-01T15:24:04.265Z,79.50
2022-12-01T15:26:33.663Z,70.78
2022-12-01T15:29:17.381Z,53.63
2022-12-01T15:31:46.771Z,66.30
2022-12-01T15:34:23.323Z,65.30
2022-12-01T15:36:51.819Z,68.25
2022-12-01T15:39:21.047Z,70.50
2022-12-01T15:41:53.692Z,66.53
2022-12-01T15:44:35.077Z,58.85
2022-12-01T15:47:31.116Z,65.25
2022-12-01T15:49:57.790Z,62.55
2022-12-01T15:52:24.760Z,68.47
2022-12-01T15:54:51.804Z,56.85
2022-12-01T15:57:20.400Z,54.88
2022-12-01T15:59:53.657Z,51.90
2022-12-01T16:02:20.394Z,62.13
2022-12-01T16:04:50.558Z,56.30
2022-12-01T16:07:17.734Z,64.05
2022-12-01T16:09:56.744Z,51.85
2022-12-01T16:12:41.624Z,58.70
2022-12-01T16:15:18.441Z,65.30
2022-12-01T16:17:54.016Z,72.88
2022-12-01T16:20:24.832Z,59.05
2022-12-01T16:22:56.601Z,56.83
2022-12-01T16:25:33.685Z,63.30
2022-12-01T16:28:00.904Z,49.35
2022-12-01T16:30:31.168Z,62.42
2022-12-01T16:33:21.963Z,58.95
2022-12-01T16:35:49.095Z,55.92
2022-12-01T16:38:22.698Z,64.03
2022-12-01T16:41:16.634Z,51.60
2022-12-01T16:43:59.115Z,59.58
2022-12-01T16:46:30.760Z,67.63
2022-12-01T16:48:57.425Z,63.28
2022-12-01T16:51:30.008Z,67.40
2022-12-01T16:54:04.071Z,56.95
2022-12-01T16:56:32.527Z,63.75
2022-12-01T16:59:01.065Z,55.03
2022-12-01T17:01:29.260Z,69.40
2022-12-01T17:03:56.162Z,61.20
2022-12-01T17:06:23.209Z,60.25
2022-12-01T17:08:50.010Z,59.10
2022-12-01T17:11:16.768Z,56.25
2022-12-01T17:13:44.216Z,68.30
2022-12-01T17:16:16.838Z,58.63
2022-12-01T17:18:45.415Z,63.17
2022-12-01T17:21:12.365Z,58.40
2022-12-01T17:26:21.883Z,64.72
2022-12-01T17:28:50.870Z,60.72
2022-12-01T17:31:17.580Z,63.75
2022-12-01T17:33:44.732Z,66.82
2022-12-01T17:36:13.104Z,60.20
2022-12-01T17:38:42.076Z,56.55
2022-12-01T17:41:24.960Z,72.85
2022-12-01T17:43:51.927Z,66.40
2022-12-01T17:46:18.912Z,66.03
2022-12-01T17:48:46.785Z,62.78
2022-12-01T17:51:14.880Z,61.40
2022-12-01T17:53:41.952Z,68.10
2022-12-01T17:56:10.471Z,57.88
2022-12-01T17:58:37.404Z,64.57
2022-12-01T18:01:06.001Z,55.80
2022-12-01T18:03:32.961Z,65.35
2022-12-01T18:06:01.653Z,59.30
2022-12-01T18:08:31.126Z,55.70
2022-12-01T18:11:02.735Z,58.10
2022-12-01T18:13:29.796Z,60.10
2022-12-01T18:15:56.459Z,40.33
2022-12-01T18:18:23.138Z,51.47
2022-12-01T18:20:49.786Z,46.20
2022-12-01T18:23:16.589Z,58.50
2022-12-01T18:25:43.202Z,54.17
2022-12-01T18:28:11.368Z,57.75
2022-12-01T18:30:38.799Z,47.05
2022-12-01T18:33:08.632Z,52.65
2022-12-01T18:35:35.383Z,54.53
2022-12-01T18:38:02.597Z,44.67
2022-12-01T18:40:29.258Z,43.47
2022-12-01T18:42:56.083Z,41.15
2022-12-01T18:45:22.789Z,52.50
2022-12-01T18:47:49.641Z,51.33
2022-12-01T18:50:16.583Z,34.03
2022-12-01T18:52:43.273Z,53.63
2022-12-01T18:55:10.002Z,44.25
2022-12-01T18:57:36.745Z,51.72
2022-12-01T19:00:06.335Z,43.97
2022-12-01T19:02:33.199Z,41.30
2022-12-01T19:05:00.015Z,47.13
2022-12-01T19:07:29.915Z,41.88
2022-12-01T19:09:59.449Z,41.92
2022-12-01T19:12:26.207Z,41.83
2022-12-01T19:14:54.204Z,42.47
2022-12-01T19:17:21.517Z,49.05
2022-12-01T19:19:48.830Z,51.60
2022-12-01T19:22:17.643Z,45.17
2022-12-01T19:24:50.069Z,46.17
2022-12-01T19:27:18.895Z,50.78
2022-12-01T19:29:46.037Z,64.82
2022-12-01T19:32:13.029Z,42.63
2022-12-01T19:34:39.758Z,58.95
2022-12-01T19:37:07.089Z,53.35
2022-12-01T19:39:34.219Z,53.25
2022-12-01T19:42:00.900Z,53.22
2022-12-01T19:44:27.757Z,60.90
2022-12-01T19:46:54.450Z,56.63
2022-12-01T19:49:21.247Z,64.28
2022-12-01T19:51:49.552Z,57.22
2022-12-01T19:54:17.903Z,69.70
2022-12-01T19:56:44.996Z,50.72
2022-12-01T19:59:13.716Z,61.28
2022-12-01T20:01:41.811Z,64.15
2022-12-01T20:04:08.624Z,62.03
2022-12-01T20:06:38.054Z,70.63
2022-12-01T20:09:06.274Z,50.25
2022-12-01T20:11:35.110Z,64.80
2022-12-01T20:14:03.635Z,69.38
2022-12-01T20:16:33.665Z,53.92
2022-12-01T20:19:02.404Z,63.22
2022-12-01T20:21:32.735Z,69.07
2022-12-01T20:24:03.941Z,60.25
2022-12-01T20:26:38.411Z,56.65
2022-12-01T20:29:09.312Z,55.78
2022-12-01T20:31:37.103Z,48.58
2022-12-01T20:34:09.479Z,54.85
2022-12-01T20:36:36.632Z,61.17
2022-12-01T20:39:04.524Z,57.55
2022-12-01T20:41:32.720Z,51.35
2022-12-01T20:44:05.375Z,48.05
2022-12-01T20:46:34.345Z,55.33
2022-12-01T20:49:02.647Z,45.75
2022-12-01T20:51:33.521Z,43.97
2022-12-01T20:54:26.832Z,33.75
2022-12-01T20:56:49.163Z,57.40
2022-12-01T20:59:16.408Z,44.90
2022-12-01T21:01:43.041Z,47.45
2022-12-01T21:04:09.957Z,56.22
2022-12-01T21:06:37.767Z,49.10
2022-12-01T21:09:05.157Z,58.92
2022-12-01T21:12:01.688Z,58.05
2022-12-01T21:14:40.022Z,52.70
2022-12-01T21:17:25.887Z,43.95
2022-12-01T21:20:08.095Z,64.50
2022-12-01T21:22:38.510Z,61.17
2022-12-01T21:25:18.709Z,61.25
2022-12-01T21:27:47.724Z,64.88
2022-12-01T21:30:30.440Z,72.13
2022-12-01T21:33:44.108Z,70.72
2022-12-01T21:36:22.458Z,66.32
2022-12-01T21:38:51.463Z,66.30
2022-12-01T21:41:25.392Z,67.43
2022-12-01T21:43:54.328Z,67.03
2022-12-01T21:46:23.494Z,73.38
2022-12-01T21:48:50.994Z,74.47
2022-12-01T21:51:23.315Z,63.90
2022-12-01T21:53:51.183Z,75.32
2022-12-01T21:56:28.575Z,64.93
2022-12-01T21:58:58.059Z,70.47
2022-12-01T22:01:32.076Z,61.33
2022-12-01T22:04:02.273Z,71.57
2022-12-01T22:06:39.067Z,76.45
2022-12-01T22:09:12.334Z,67.20
2022-12-01T22:11:38.997Z,62.35
2022-12-01T22:14:09.053Z,55.97
2022-12-01T22:16:39.695Z,58.67
2022-12-01T22:19:15.745Z,64.00
2022-12-01T22:21:46.864Z,56.25
2022-12-01T22:24:28.007Z,63.25
2022-12-01T22:27:28.941Z,53.13
2022-12-01T22:30:29.351Z,61.53
2022-12-01T22:32:59.430Z,61.20
2022-12-01T22:35:36.676Z,54.90
2022-12-01T22:38:06.367Z,51.53
2022-12-01T22:40:48.375Z,59.05
2022-12-01T22:43:17.909Z,48.13
2022-12-01T22:45:50.321Z,45.00
2022-12-01T22:48:26.085Z,58.00
2022-12-01T22:50:53.075Z,56.72
2022-12-01T22:53:30.421Z,53.67
2022-12-01T22:56:00.500Z,48.42
2022-12-01T22:58:35.185Z,52.35
2022-12-01T23:01:10.224Z,52.35
2022-12-01T23:03:36.955Z,54.58
2022-12-01T23:06:43.849Z,46.33
2022-12-01T23:09:14.494Z,53.13
2022-12-01T23:11:45.273Z,49.17
2022-12-01T23:14:22.732Z,56.40
2022-12-01T23:16:52.661Z,61.53
2022-12-01T23:19:19.391Z,62.72
2022-12-01T23:21:46.033Z,65.82
2022-12-01T23:24:15.719Z,55.40
2022-12-01T23:26:45.067Z,64.63
2022-12-01T23:29:12.340Z,58.45
2022-12-01T23:31:39.062Z,64.88
2022-12-01T23:34:16.921Z,71.82
2022-12-01T23:36:44.785Z,64.45
2022-12-01T23:39:13.073Z,68.43
2022-12-01T23:41:44.161Z,68.32
2022-12-01T23:44:31.227Z,70.95
2022-12-01T23:46:58.837Z,74.25
2022-12-01T23:49:33.461Z,67.13
2022-12-01T23:52:01.316Z,61.83
2022-12-01T23:54:31.583Z,66.97
2022-12-01T23:57:05.179Z,64.40
2022-12-01T23:59:32.171Z,60.42
